Donalds, South Carolina
Current Conditions -  °F | °C
As of 4:56 PM on Wednesday 28 Jan 2015 (Local Time) from KGRD Reporting Station
Clear Clear  
Wind Chill: 52°   Ceiling: Unl
Heat Index: 52°   Visibility: 10mi
Dew Point: 13°   Wind: 0mph
Humidity: 21%   Direction: NA
Pressure: 30.25"   Gusts: NA
Location:  34.38°N, 82.35°W
Report Text: KGRD 282156Z AUTO 00000KT 10SM CLR 11/M11 A3025 RMK AO2 SLP247 T01111106
Loading
Personal Weather Stations






























Interactive Weather Map New forecast layout! Learn more

10-Day Weather Forecast

Advertisements
Track Severe Weather on mobile